^^
Historische Daten
 
Tag Summe für September 20, 2017 Einheit:  Metric    English   Beide
« vorheriger Tag
nächster Tag »
Tag Woche Monat Jahr Benutzerdefiniert
  Aktuell: Max: Min: Durchschnitt:
Temperatur: 6.9 °C 6.9 °C 6.7 °C 6.8 °C
Tau Punkt: 6.2 °C 6.2 °C 5.7 °C 5.9 °C
Luftfeuchte: 95% 95% 92% 93%
Windgeschwindigkeit: 5.6km/h 14.8km/h 0.0km/h 3.4km/h
Wind Böen: 5.6km/h 14.8km/h - -
WindNNW - - WSW
Luftdruck: 1018.8 hPa 1018.8 hPa 1018.5 hPa -
Niederschlag: 0.0 mm      
Historical Graphs
 
 
Tabellendaten für September 20, 2017
Zeit Temperatur Tau Punkt Luftdruck Wind Windgeschwindigkeit Wind Böen Luftfeuchte Regen Rate (Stunde) Conditions
00:01 6.9 °C 5.7 °C 1018.8 hPa WNW 3.7 km/h 3.7 km/h 92% 0.0 mm RA
00:06 6.9 °C 5.7 °C 1018.8 hPa WNW 3.7 km/h 3.9 km/h 92% 0.0 mm RA
00:11 6.9 °C 5.7 °C 1018.8 hPa WNW 5.6 km/h 5.6 km/h 92% 0.0 mm CLR
00:16 6.9 °C 5.7 °C 1018.8 hPa WNW 7.4 km/h 7.4 km/h 92% 0.0 mm CLR
00:21 6.9 °C 5.9 °C 1018.8 hPa WNW 5.6 km/h 5.6 km/h 93% 0.0 mm CLR
00:26 6.9 °C 5.9 °C 1018.8 hPa WNW 1.8 km/h   93% 0.0 mm CLR
00:31 6.9 °C 5.8 °C 1018.8 hPa Calm     93% 0.0 mm CLR
00:36 6.9 °C 5.8 °C 1018.8 hPa WNW 1.9 km/h   93% 0.0 mm CLR
00:41 6.8 °C 5.8 °C 1018.8 hPa Calm     93% 0.0 mm CLR
00:46 6.8 °C 5.8 °C 1018.8 hPa Calm     93% 0.0 mm CLR
00:51 6.8 °C 5.8 °C 1018.8 hPa Calm     93% 0.0 mm CLR
00:56 6.8 °C 5.8 °C 1018.8 hPa Calm     93% 0.0 mm CLR
01:02 6.8 °C 5.7 °C 1018.8 hPa Calm     93% 0.0 mm CLR
01:07 6.8 °C 5.7 °C 1018.8 hPa Calm     93% 0.0 mm CLR
01:12 6.8 °C 5.7 °C 1018.8 hPa Calm   0.2 km/h 93% 0.0 mm CLR
01:17 6.8 °C 5.7 °C 1018.8 hPa Calm     93% 0.0 mm CLR
01:22 6.7 °C 5.7 °C 1018.8 hPa Calm     93% 0.0 mm CLR
01:27 6.7 °C 5.7 °C 1018.8 hPa Calm     93% 0.0 mm CLR
01:32 6.7 °C 5.7 °C 1018.8 hPa WNW 3.7 km/h 3.7 km/h 93% 0.0 mm CLR
01:37 6.7 °C 5.7 °C 1018.8 hPa WNW 1.9 km/h 1.9 km/h 93% 0.0 mm CLR
01:42 6.7 °C 5.7 °C 1018.8 hPa Calm     93% 0.0 mm CLR
01:47 6.8 °C 5.7 °C 1018.8 hPa WNW 1.9 km/h 1.9 km/h 93% 0.0 mm CLR
01:52 6.7 °C 5.7 °C 1018.8 hPa Calm     93% 0.0 mm CLR
01:57 6.7 °C 5.7 °C 1018.8 hPa Calm     93% 0.0 mm CLR
02:02 6.8 °C 5.7 °C 1018.8 hPa Calm     93% 0.0 mm CLR
02:07 6.8 °C 5.7 °C 1018.8 hPa Calm     93% 0.0 mm CLR
02:12 6.8 °C 5.7 °C 1018.8 hPa Calm     93% 0.0 mm CLR
02:17 6.8 °C 5.7 °C 1018.8 hPa Calm     93% 0.0 mm CLR
02:22 6.8 °C 5.9 °C 1018.8 hPa Calm     94% 0.0 mm CLR
02:27 6.8 °C 5.9 °C 1018.5 hPa WNW 3.7 km/h 3.7 km/h 94% 0.0 mm CLR
02:32 6.8 °C 5.9 °C 1018.5 hPa WNW 1.9 km/h 1.9 km/h 94% 0.0 mm CLR
02:37 6.8 °C 5.9 °C 1018.5 hPa WNW 7.1 km/h 7.1 km/h 94% 0.0 mm CLR
02:42 6.9 °C 6.0 °C 1018.8 hPa WNW 3.7 km/h 3.7 km/h 94% 0.0 mm CLR
02:47 6.9 °C 6.1 °C 1018.5 hPa NNE 9.3 km/h 9.3 km/h 94% 0.0 mm CLR
02:52 6.9 °C 6.1 °C 1018.5 hPa West 3.7 km/h 3.7 km/h 94% 0.0 mm CLR
02:57 6.9 °C 6.1 °C 1018.5 hPa WNW 11.1 km/h 11.1 km/h 94% 0.0 mm CLR
03:02 6.9 °C 6.1 °C 1018.5 hPa North 14.8 km/h 14.8 km/h 94% 0.0 mm CLR
03:07 6.9 °C 6.1 °C 1018.8 hPa WNW 11.1 km/h 11.1 km/h 94% 0.0 mm CLR
03:12 6.9 °C 6.0 °C 1018.8 hPa WNW 9.3 km/h 9.3 km/h 94% 0.0 mm CLR
03:17 6.9 °C 6.1 °C 1018.8 hPa WNW 8.8 km/h 8.8 km/h 94% 0.0 mm CLR
03:22 6.9 °C 6.1 °C 1018.8 hPa NNE 5.6 km/h 5.6 km/h 94% 0.0 mm CLR
03:27 6.9 °C 6.1 °C 1018.8 hPa NW 5.6 km/h 5.6 km/h 94% 0.0 mm CLR
03:32 6.9 °C 6.0 °C 1018.8 hPa NNE 7.4 km/h 7.4 km/h 94% 0.0 mm CLR
03:37 6.9 °C 6.0 °C 1018.8 hPa WSW 5.3 km/h 5.3 km/h 94% 0.0 mm CLR
03:42 6.9 °C 6.2 °C 1018.8 hPa NNE 5.6 km/h 5.6 km/h 95% 0.0 mm CLR
03:47 6.9 °C 6.2 °C 1018.8 hPa NE 1.8 km/h   95% 0.0 mm CLR
03:52 6.9 °C 6.2 °C 1018.8 hPa North 3.7 km/h 4.0 km/h 95% 0.0 mm CLR
03:57 6.9 °C 6.2 °C 1018.8 hPa North 3.7 km/h 3.7 km/h 95% 0.0 mm CLR
04:02 6.9 °C 6.2 °C 1018.8 hPa NNW 5.6 km/h 5.6 km/h 95% 0.0 mm CLR
Wetterstation-Johanngeorgenstadt
bereitgestellt durch Wetterstation-Johanngeorgenstadt und Weather Underground - 1.75 mb
Besucherstatistik
Besucher gesamt: 763.161
Besucher heute: 213
Besucher gestern: 1.106
Besucher pro Tag: 882,43
gerade online: 25
max. online: 156
Seitenaufrufe diese Seite: 2.575
counter Statistiken